createdAt,value
2022-12-03T00:00:14.749Z,101333.59
2022-12-03T00:02:42.676Z,101336.44
2022-12-03T00:05:12.352Z,101342.34
2022-12-03T00:07:40.178Z,101341.09
2022-12-03T00:10:09.373Z,101343.19
2022-12-03T00:12:37.212Z,101340.22
2022-12-03T00:15:11.230Z,101338.44
2022-12-03T00:17:39.183Z,101339.09
2022-12-03T00:20:14.267Z,101341.06
2022-12-03T00:22:42.202Z,101342.63
2022-12-03T00:25:10.406Z,101337.50
2022-12-03T00:27:38.302Z,101328.31
2022-12-03T00:30:10.711Z,101336.44
2022-12-03T00:32:38.632Z,101333.44
2022-12-03T00:35:08.789Z,101326.22
2022-12-03T00:37:36.980Z,101321.81
2022-12-03T00:40:07.217Z,101328.19
2022-12-03T00:42:37.847Z,101321.06
2022-12-03T00:45:13.069Z,101322.16
2022-12-03T00:47:40.938Z,101322.34
2022-12-03T00:50:10.250Z,101328.25
2022-12-03T00:52:38.172Z,101325.78
2022-12-03T00:55:09.497Z,101330.16
2022-12-03T00:57:37.301Z,101334.00
2022-12-03T01:00:12.046Z,101333.59
2022-12-03T01:02:40.200Z,101331.56
2022-12-03T01:05:11.523Z,101330.44
2022-12-03T01:07:39.479Z,101327.69
2022-12-03T01:10:10.652Z,101324.13
2022-12-03T01:12:38.813Z,101328.84
2022-12-03T01:15:11.940Z,101335.72
2022-12-03T01:17:39.795Z,101339.13
2022-12-03T01:20:10.865Z,101337.25
2022-12-03T01:22:38.793Z,101337.81
2022-12-03T01:25:09.992Z,101338.63
2022-12-03T01:27:37.867Z,101339.84
2022-12-03T01:30:09.406Z,101343.09
2022-12-03T01:32:38.306Z,101336.28
2022-12-03T01:35:09.844Z,101334.28
2022-12-03T01:37:38.703Z,101342.28
2022-12-03T01:40:14.320Z,101336.28
2022-12-03T01:42:42.765Z,101333.72
2022-12-03T01:45:23.678Z,101339.81
2022-12-03T01:47:52.353Z,101333.88
2022-12-03T01:50:29.386Z,101330.00
2022-12-03T01:53:01.666Z,101333.88
2022-12-03T01:55:29.889Z,101329.09
2022-12-03T01:58:01.990Z,101330.44
2022-12-03T02:00:31.593Z,101339.78
2022-12-03T02:03:02.542Z,101336.44
2022-12-03T02:05:32.976Z,101333.69
2022-12-03T02:08:22.619Z,101341.59
2022-12-03T02:10:50.685Z,101332.38
2022-12-03T02:13:19.314Z,101334.09
2022-12-03T02:15:48.623Z,101334.34
2022-12-03T02:18:16.526Z,101339.34
2022-12-03T02:20:55.351Z,101334.00
2022-12-03T02:23:34.888Z,101333.25
2022-12-03T02:26:04.423Z,101327.13
2022-12-03T02:28:32.269Z,101328.94
2022-12-03T02:31:00.121Z,101333.63
2022-12-03T02:33:28.289Z,101334.72
2022-12-03T02:36:01.924Z,101326.47
2022-12-03T02:38:34.805Z,101324.69
2022-12-03T02:41:09.021Z,101325.91
2022-12-03T02:43:37.353Z,101318.03
2022-12-03T02:46:08.046Z,101322.47
2022-12-03T02:48:40.951Z,101324.28
2022-12-03T02:51:11.138Z,101318.34
2022-12-03T02:53:44.486Z,101323.56
2022-12-03T02:56:18.198Z,101334.44
2022-12-03T02:58:51.222Z,101327.81
2022-12-03T03:01:19.139Z,101321.84
2022-12-03T03:03:48.948Z,101321.84
2022-12-03T03:06:19.133Z,101320.88
2022-12-03T03:08:46.990Z,101319.22
2022-12-03T03:11:16.150Z,101313.13
2022-12-03T03:13:44.170Z,101318.44
2022-12-03T03:16:12.147Z,101317.31
2022-12-03T03:18:40.639Z,101315.84
2022-12-03T03:21:08.712Z,101307.78
2022-12-03T03:23:36.406Z,101312.69
2022-12-03T03:26:09.647Z,101313.16
2022-12-03T03:28:42.418Z,101310.47
2022-12-03T03:31:16.710Z,101311.84
2022-12-03T03:33:47.983Z,101310.50
2022-12-03T03:36:17.080Z,101313.41
2022-12-03T03:38:44.950Z,101316.63
2022-12-03T03:41:14.922Z,101312.84
2022-12-03T03:43:46.446Z,101307.84
2022-12-03T03:46:16.649Z,101300.94
2022-12-03T03:48:44.873Z,101293.16
2022-12-03T03:51:13.522Z,101295.94
2022-12-03T03:53:48.067Z,101299.19
2022-12-03T03:56:17.417Z,101289.63
2022-12-03T03:58:46.591Z,101289.41
2022-12-03T04:01:16.877Z,101288.16
2022-12-03T04:03:44.843Z,101292.03
2022-12-03T04:06:12.584Z,101284.28
2022-12-03T04:08:40.322Z,101282.38
2022-12-03T04:11:27.701Z,101288.06
2022-12-03T04:13:56.855Z,101281.81
2022-12-03T04:16:24.680Z,101282.03
2022-12-03T04:18:52.636Z,101272.25
2022-12-03T04:21:42.083Z,101270.69
2022-12-03T04:24:11.856Z,101273.03
2022-12-03T04:26:58.532Z,101278.59
2022-12-03T04:29:27.709Z,101276.00
2022-12-03T04:32:13.717Z,101276.22
2022-12-03T04:35:00.416Z,101283.38
2022-12-03T04:37:28.381Z,101276.56
2022-12-03T04:39:56.103Z,101272.91
2022-12-03T04:42:23.958Z,101273.34
2022-12-03T04:44:53.201Z,101276.66
2022-12-03T04:47:21.879Z,101274.22
2022-12-03T04:49:51.804Z,101277.53
2022-12-03T04:52:21.223Z,101280.03
2022-12-03T04:54:49.245Z,101282.03
2022-12-03T04:57:17.588Z,101282.03
2022-12-03T04:59:45.646Z,101276.03
2022-12-03T05:02:14.784Z,101286.03
2022-12-03T05:04:42.567Z,101286.78
2022-12-03T05:07:11.370Z,101284.91
2022-12-03T05:09:39.071Z,101289.16
2022-12-03T05:12:07.051Z,101284.47
2022-12-03T05:14:34.917Z,101289.38
2022-12-03T05:17:02.815Z,101289.59
2022-12-03T05:19:50.521Z,101289.34
2022-12-03T05:22:18.251Z,101287.84
2022-12-03T05:24:45.938Z,101287.84
2022-12-03T05:29:59.216Z,101286.72
2022-12-03T05:32:26.964Z,101281.41
2022-12-03T05:34:56.448Z,101280.84
2022-12-03T05:37:24.451Z,101279.03
2022-12-03T05:39:54.518Z,101280.50
2022-12-03T05:42:40.918Z,101273.16
2022-12-03T05:45:11.373Z,101278.63
2022-12-03T05:47:39.244Z,101276.06
2022-12-03T05:50:12.099Z,101275.41
2022-12-03T05:52:40.034Z,101276.06
2022-12-03T05:55:12.541Z,101267.59
2022-12-03T05:57:40.547Z,101275.16
2022-12-03T06:00:17.598Z,101272.50
2022-12-03T06:02:46.250Z,101274.03
2022-12-03T06:05:19.367Z,101271.19
2022-12-03T06:07:49.084Z,101268.50
2022-12-03T06:10:20.181Z,101265.59
2022-12-03T06:12:48.468Z,101271.63
2022-12-03T06:15:17.241Z,101268.94
2022-12-03T06:17:45.229Z,101274.03
2022-12-03T06:20:17.283Z,101269.81
2022-12-03T06:22:45.345Z,101259.16
2022-12-03T06:25:14.074Z,101271.19
2022-12-03T06:27:42.457Z,101267.72
2022-12-03T06:30:13.777Z,101266.94
2022-12-03T06:32:41.682Z,101264.47
2022-12-03T06:35:12.452Z,101259.38
2022-12-03T06:37:41.658Z,101261.97
2022-12-03T06:40:11.066Z,101257.16
2022-12-03T06:42:38.796Z,101261.59
2022-12-03T06:45:07.666Z,101262.03
2022-12-03T06:47:38.507Z,101264.47
2022-12-03T06:50:13.294Z,101261.06
2022-12-03T06:52:42.348Z,101263.81
2022-12-03T06:55:10.236Z,101257.63
2022-12-03T06:57:38.126Z,101257.63
2022-12-03T07:00:10.584Z,101254.28
2022-12-03T07:02:38.447Z,101258.94
2022-12-03T07:05:07.473Z,101253.69
2022-12-03T07:07:36.015Z,101245.16
2022-12-03T07:10:08.581Z,101255.16
2022-12-03T07:12:38.737Z,101244.63
2022-12-03T07:15:10.503Z,101246.94
2022-12-03T07:17:38.652Z,101254.47
2022-12-03T07:20:10.477Z,101252.16
2022-12-03T07:22:38.397Z,101260.25
2022-12-03T07:25:09.368Z,101247.63
2022-12-03T07:27:37.252Z,101255.72
2022-12-03T07:30:11.958Z,101253.50
2022-12-03T07:32:39.710Z,101253.16
2022-12-03T07:35:11.412Z,101257.16
2022-12-03T07:37:39.281Z,101258.28
2022-12-03T07:40:13.111Z,101256.38
2022-12-03T07:42:40.905Z,101258.41
2022-12-03T07:45:10.754Z,101258.75
2022-12-03T07:47:38.678Z,101251.72
2022-12-03T07:50:08.598Z,101255.59
2022-12-03T07:52:36.440Z,101258.25
2022-12-03T07:55:05.394Z,101271.59
2022-12-03T07:57:34.650Z,101266.91
2022-12-03T08:00:03.515Z,101267.34
2022-12-03T08:02:32.835Z,101266.69
2022-12-03T08:05:00.562Z,101273.69
2022-12-03T08:07:28.447Z,101272.91
2022-12-03T08:09:56.469Z,101261.16
2022-12-03T08:12:39.854Z,101267.34
2022-12-03T08:15:15.950Z,101259.16
2022-12-03T08:17:45.537Z,101266.06
2022-12-03T08:20:18.225Z,101267.03
2022-12-03T08:22:50.036Z,101263.16
2022-12-03T08:25:23.399Z,101260.47
2022-12-03T08:27:55.739Z,101258.41
2022-12-03T08:30:42.247Z,101257.38
2022-12-03T08:33:20.544Z,101257.81
2022-12-03T08:35:51.225Z,101262.50
2022-12-03T08:38:24.729Z,101259.81
2022-12-03T08:40:55.272Z,101253.50
2022-12-03T08:43:28.865Z,101258.16
2022-12-03T08:45:59.822Z,101263.59
2022-12-03T08:48:37.233Z,101269.72
2022-12-03T08:51:15.269Z,101263.16
2022-12-03T08:54:14.462Z,101266.03
2022-12-03T08:56:42.313Z,101264.91
2022-12-03T08:59:28.556Z,101256.47
2022-12-03T09:01:59.422Z,101260.69
2022-12-03T09:04:36.886Z,101263.16
2022-12-03T09:07:05.129Z,101260.25
2022-12-03T09:09:34.468Z,101257.25
2022-12-03T09:12:03.096Z,101263.69
2022-12-03T09:14:31.116Z,101265.81
2022-12-03T09:17:00.345Z,101263.50
2022-12-03T09:19:31.189Z,101255.81
2022-12-03T09:21:59.062Z,101255.28
2022-12-03T09:24:26.785Z,101260.25
2022-12-03T09:26:55.980Z,101252.72
2022-12-03T09:29:26.190Z,101256.38
2022-12-03T09:31:54.205Z,101255.06
2022-12-03T09:34:23.302Z,101254.06
2022-12-03T09:36:51.302Z,101250.94
2022-12-03T09:39:19.093Z,101252.72
2022-12-03T09:41:47.144Z,101251.41
2022-12-03T09:44:17.985Z,101255.63
2022-12-03T09:46:48.402Z,101250.50
2022-12-03T09:49:19.756Z,101243.81
2022-12-03T09:51:55.133Z,101244.94
2022-12-03T09:54:26.193Z,101237.81
2022-12-03T09:56:56.556Z,101247.81
2022-12-03T09:59:29.549Z,101243.84
2022-12-03T10:01:58.345Z,101248.72
2022-12-03T10:04:27.478Z,101245.59
2022-12-03T10:06:58.912Z,101239.38
2022-12-03T10:09:31.645Z,101241.38
2022-12-03T10:12:00.438Z,101233.59
2022-12-03T10:14:28.763Z,101228.06
2022-12-03T10:16:57.044Z,101225.56
2022-12-03T10:19:31.499Z,101224.94
2022-12-03T10:22:00.651Z,101222.94
2022-12-03T10:24:30.836Z,101219.94
2022-12-03T10:27:01.280Z,101222.59
2022-12-03T10:29:34.367Z,101218.72
2022-12-03T10:32:10.167Z,101218.06
2022-12-03T10:34:40.636Z,101214.81
2022-12-03T10:37:17.049Z,101213.16
2022-12-03T10:39:58.341Z,101210.50
2022-12-03T10:42:28.903Z,101204.50
2022-12-03T10:45:19.528Z,101207.84
2022-12-03T10:48:11.731Z,101196.47
2022-12-03T10:50:50.295Z,101198.28
2022-12-03T10:53:22.059Z,101193.72
2022-12-03T10:55:52.259Z,101190.38
2022-12-03T10:58:24.489Z,101194.28
2022-12-03T11:00:57.361Z,101190.28
2022-12-03T11:03:34.142Z,101186.28
2022-12-03T11:06:06.183Z,101180.72
2022-12-03T11:08:37.610Z,101175.84
2022-12-03T11:11:16.031Z,101173.63
2022-12-03T11:13:52.328Z,101176.31
2022-12-03T11:17:09.023Z,101178.28
2022-12-03T11:19:48.982Z,101176.50
2022-12-03T11:22:40.026Z,101172.50
2022-12-03T11:25:50.877Z,101175.84
2022-12-03T11:28:38.001Z,101169.72
2022-12-03T11:31:14.948Z,101160.72
2022-12-03T11:33:44.530Z,101163.91
2022-12-03T11:36:15.602Z,101159.84
2022-12-03T11:38:53.334Z,101148.19
2022-12-03T11:41:28.287Z,101148.53
2022-12-03T11:44:21.004Z,101149.31
2022-12-03T11:46:49.634Z,101146.97
2022-12-03T11:49:33.904Z,101137.88
2022-12-03T11:52:19.252Z,101143.66
2022-12-03T11:54:51.853Z,101143.88
2022-12-03T11:57:34.718Z,101136.41
2022-12-03T12:00:18.850Z,101133.41
2022-12-03T12:02:48.999Z,101138.75
2022-12-03T12:05:29.131Z,101132.53
2022-12-03T12:07:57.671Z,101134.31
2022-12-03T12:10:46.116Z,101125.75
2022-12-03T12:13:50.318Z,101123.81
2022-12-03T12:16:51.378Z,101122.69
2022-12-03T12:19:35.945Z,101123.94
2022-12-03T12:22:30.951Z,101120.75
2022-12-03T12:25:03.774Z,101112.25
2022-12-03T12:27:39.349Z,101113.81
2022-12-03T12:30:15.725Z,101104.03
2022-12-03T12:32:47.685Z,101106.34
2022-12-03T12:35:19.803Z,101102.09
2022-12-03T12:37:59.116Z,101097.06
2022-12-03T12:40:32.137Z,101091.22
2022-12-03T12:43:10.017Z,101093.34
2022-12-03T12:45:43.278Z,101086.03
2022-12-03T12:48:22.154Z,101086.91
2022-12-03T12:50:58.119Z,101088.00
2022-12-03T12:53:32.132Z,101080.44
2022-12-03T12:56:06.533Z,101078.16
2022-12-03T12:58:34.697Z,101079.41
2022-12-03T13:01:15.041Z,101075.38
2022-12-03T13:03:42.926Z,101077.81
2022-12-03T13:06:15.748Z,101083.28
2022-12-03T13:08:47.182Z,101079.72
2022-12-03T13:11:35.040Z,101063.63
2022-12-03T13:14:13.058Z,101068.81
2022-12-03T13:16:42.391Z,101067.13
2022-12-03T13:19:22.881Z,101062.41
2022-12-03T13:21:52.327Z,101063.75
2022-12-03T13:24:32.265Z,101055.28
2022-12-03T13:27:20.721Z,101059.25
2022-12-03T13:29:54.660Z,101050.03
2022-12-03T13:32:32.915Z,101055.44
2022-12-03T13:35:05.939Z,101056.38
2022-12-03T13:37:37.215Z,101057.91
2022-12-03T13:40:20.761Z,101052.78
2022-12-03T13:42:52.459Z,101051.50
2022-12-03T13:45:37.384Z,101049.56
2022-12-03T13:48:21.623Z,101051.31
2022-12-03T13:50:50.737Z,101050.50
2022-12-03T13:53:23.270Z,101052.16
2022-12-03T13:55:56.551Z,101048.03
2022-12-03T13:58:25.853Z,101048.91
2022-12-03T14:00:53.680Z,101044.19
2022-12-03T14:03:23.390Z,101046.53
2022-12-03T14:05:51.264Z,101041.09
2022-12-03T14:08:19.100Z,101043.25
2022-12-03T14:10:47.034Z,101038.28
2022-12-03T14:13:14.752Z,101034.56
2022-12-03T14:15:42.408Z,101040.69
2022-12-03T14:18:10.938Z,101035.91
2022-12-03T14:20:39.960Z,101039.34
2022-12-03T14:23:07.661Z,101038.31
2022-12-03T14:25:35.457Z,101036.09
2022-12-03T14:28:05.537Z,101039.63
2022-12-03T14:30:33.332Z,101037.84
2022-12-03T14:33:01.503Z,101028.06
2022-12-03T14:35:29.186Z,101034.97
2022-12-03T14:37:58.302Z,101032.41
2022-12-03T14:40:26.248Z,101030.13
2022-12-03T14:42:53.961Z,101026.44
2022-12-03T14:45:22.971Z,101023.72
2022-12-03T14:47:50.785Z,101024.66
2022-12-03T14:50:18.689Z,101026.34
2022-12-03T14:52:46.456Z,101022.59
2022-12-03T14:55:15.752Z,101023.03
2022-12-03T14:57:43.418Z,101029.13
2022-12-03T15:00:12.851Z,101031.47
2022-12-03T15:02:40.838Z,101032.34
2022-12-03T15:05:09.115Z,101033.25
2022-12-03T15:07:39.258Z,101028.41
2022-12-03T15:10:08.544Z,101037.34
2022-12-03T15:12:37.696Z,101041.00
2022-12-03T15:15:07.327Z,101040.78
2022-12-03T15:17:35.187Z,101046.56
2022-12-03T15:20:03.963Z,101046.78
2022-12-03T15:22:31.714Z,101047.28
2022-12-03T15:24:59.490Z,101045.31
2022-12-03T15:27:27.417Z,101046.94
2022-12-03T15:29:56.745Z,101040.19
2022-12-03T15:32:24.716Z,101040.69
2022-12-03T15:34:52.456Z,101040.53
2022-12-03T15:37:20.347Z,101037.34
2022-12-03T15:39:48.956Z,101040.34
2022-12-03T15:42:16.823Z,101037.16
2022-12-03T15:44:46.906Z,101039.94
2022-12-03T15:47:16.099Z,101035.09
2022-12-03T15:49:43.756Z,101032.28
2022-12-03T15:52:11.537Z,101029.97
2022-12-03T15:54:39.393Z,101028.19
2022-12-03T15:57:07.134Z,101031.44
2022-12-03T15:59:34.878Z,101031.75
2022-12-03T16:02:02.657Z,101035.63
2022-12-03T16:04:31.866Z,101027.75
2022-12-03T16:06:59.598Z,101025.97
2022-12-03T16:09:27.913Z,101023.09
2022-12-03T16:11:55.746Z,101031.09
2022-12-03T16:14:23.696Z,101035.09
2022-12-03T16:16:51.901Z,101030.50
2022-12-03T16:19:19.637Z,101036.56
2022-12-03T16:21:48.820Z,101030.06
2022-12-03T16:24:16.579Z,101030.19
2022-12-03T16:26:44.272Z,101026.41
2022-12-03T16:29:12.179Z,101026.84
2022-12-03T16:31:40.036Z,101029.97
2022-12-03T16:34:07.773Z,101023.72
2022-12-03T16:36:35.516Z,101025.94
2022-12-03T16:39:05.304Z,101019.41
2022-12-03T16:41:33.145Z,101022.53
2022-12-03T16:44:02.877Z,101017.50
2022-12-03T16:46:31.037Z,101015.53
2022-12-03T16:48:59.411Z,101012.66
2022-12-03T16:51:28.541Z,101006.53
2022-12-03T16:53:56.347Z,101014.53
2022-12-03T16:56:25.405Z,101011.72
2022-12-03T16:58:53.063Z,101003.28
2022-12-03T17:01:23.209Z,101006.19
2022-12-03T17:03:51.200Z,101005.06
2022-12-03T17:06:19.407Z,101006.00
2022-12-03T17:08:49.759Z,101003.22
2022-12-03T17:11:18.557Z,101011.19
2022-12-03T17:13:47.733Z,101008.88
2022-12-03T17:16:15.738Z,101021.31
2022-12-03T17:18:43.623Z,101009.75
2022-12-03T17:21:11.534Z,101010.31
2022-12-03T17:23:39.278Z,101017.97
2022-12-03T17:26:07.079Z,101013.06
2022-12-03T17:28:35.733Z,101009.66
2022-12-03T17:31:05.225Z,101002.22
2022-12-03T17:33:33.313Z,101011.09
2022-12-03T17:36:01.280Z,101007.13
2022-12-03T17:38:31.619Z,101012.66
2022-12-03T17:41:03.615Z,101011.31
2022-12-03T17:43:31.496Z,101008.19
2022-12-03T17:46:00.071Z,101009.53
2022-12-03T17:48:31.049Z,101005.34
2022-12-03T17:50:59.286Z,101003.34
2022-12-03T17:53:27.354Z,100995.00
2022-12-03T17:55:55.205Z,100996.31
2022-12-03T17:58:22.971Z,100989.34
2022-12-03T18:00:50.658Z,100998.88
2022-12-03T18:03:18.450Z,100995.56
2022-12-03T18:05:47.505Z,100995.34
2022-12-03T18:08:15.311Z,100993.94
2022-12-03T18:10:43.066Z,100998.25
2022-12-03T18:13:11.000Z,100993.13
2022-12-03T18:15:38.844Z,100996.66
2022-12-03T18:18:07.093Z,100993.31
2022-12-03T18:20:35.008Z,100990.63
2022-12-03T18:23:04.666Z,100996.66
2022-12-03T18:25:32.938Z,100986.13
2022-12-03T18:28:00.681Z,100989.34
2022-12-03T18:30:28.430Z,100990.88
2022-12-03T18:32:56.523Z,100982.84
2022-12-03T18:35:24.512Z,100980.09
2022-12-03T18:37:52.353Z,100979.31
2022-12-03T18:40:24.661Z,100978.75
2022-12-03T18:42:55.301Z,100976.69
2022-12-03T18:45:23.102Z,100987.53
2022-12-03T18:47:50.948Z,100978.66
2022-12-03T18:50:18.933Z,100980.00
2022-12-03T18:52:46.635Z,100975.13
2022-12-03T18:55:19.024Z,100985.13
2022-12-03T18:57:48.228Z,100981.66
2022-12-03T19:00:17.013Z,100972.00
2022-12-03T19:05:34.587Z,100966.31
2022-12-03T19:08:03.396Z,100968.03
2022-12-03T19:10:31.388Z,100970.25
2022-12-03T19:13:00.620Z,100973.84
2022-12-03T19:15:28.376Z,100976.28
2022-12-03T19:17:56.181Z,100970.25
2022-12-03T19:20:24.021Z,100966.91
2022-12-03T19:22:51.851Z,100969.56
2022-12-03T19:25:19.619Z,100972.91
2022-12-03T19:27:50.169Z,100974.13
2022-12-03T19:30:19.477Z,100975.91
2022-12-03T19:32:51.412Z,100979.88
2022-12-03T19:35:21.176Z,100966.47
2022-12-03T19:37:49.118Z,100979.38
2022-12-03T19:40:17.488Z,100974.22
2022-12-03T19:42:45.221Z,100975.34
2022-12-03T19:45:13.026Z,100973.81
2022-12-03T19:47:42.217Z,100976.34
2022-12-03T19:50:11.252Z,100964.25
2022-12-03T19:52:38.921Z,100970.25
2022-12-03T19:55:07.728Z,100974.56
2022-12-03T19:57:35.788Z,100973.44
2022-12-03T20:00:06.625Z,100975.97
2022-12-03T20:02:40.160Z,100970.44
2022-12-03T20:05:09.465Z,100971.28
2022-12-03T20:07:37.235Z,100972.59
2022-12-03T20:10:07.070Z,100969.19
2022-12-03T20:12:34.907Z,100966.84
2022-12-03T20:15:02.644Z,100971.28
2022-12-03T20:17:30.531Z,100962.88
2022-12-03T20:19:58.387Z,100971.44
2022-12-03T20:22:27.658Z,100971.75
2022-12-03T20:24:55.556Z,100971.75
2022-12-03T20:27:23.369Z,100969.13
2022-12-03T20:29:51.356Z,100969.31
2022-12-03T20:32:19.300Z,100970.75
2022-12-03T20:34:47.315Z,100970.44
2022-12-03T20:37:15.029Z,100964.22
2022-12-03T20:39:44.257Z,100964.22
2022-12-03T20:42:12.032Z,100963.47
2022-12-03T20:44:39.728Z,100967.81
2022-12-03T20:47:07.612Z,100961.78
2022-12-03T20:49:35.515Z,100960.50
2022-12-03T20:52:04.880Z,100966.34
2022-12-03T20:54:32.788Z,100962.22
2022-12-03T20:57:01.879Z,100952.91
2022-12-03T20:59:29.674Z,100950.03
2022-12-03T21:01:57.553Z,100954.50
2022-12-03T21:04:25.458Z,100960.25
2022-12-03T21:06:53.163Z,100960.44
2022-12-03T21:09:20.917Z,100960.19
2022-12-03T21:11:48.632Z,100956.69
2022-12-03T21:14:17.821Z,100950.56
2022-12-03T21:19:37.392Z,100944.00
2022-12-03T21:22:05.907Z,100946.88
2022-12-03T21:24:34.649Z,100945.00
2022-12-03T21:27:02.966Z,100945.72
2022-12-03T21:29:32.051Z,100937.13
2022-12-03T21:31:59.751Z,100938.06
2022-12-03T21:34:34.181Z,100931.81
2022-12-03T21:37:04.525Z,100937.47
2022-12-03T21:39:32.614Z,100943.16
2022-12-03T21:42:22.322Z,100933.16
2022-12-03T21:44:50.118Z,100937.59
2022-12-03T21:47:18.054Z,100930.47
2022-12-03T21:49:45.809Z,100931.16
2022-12-03T21:52:13.692Z,100939.59
2022-12-03T21:54:41.499Z,100930.28
2022-12-03T21:57:09.268Z,100938.25
2022-12-03T21:59:37.094Z,100944.25
2022-12-03T22:02:06.642Z,100942.25
2022-12-03T22:04:34.549Z,100936.47
2022-12-03T22:07:02.953Z,100940.22
2022-12-03T22:09:32.017Z,100936.25
2022-12-03T22:12:00.845Z,100937.59
2022-12-03T22:14:28.937Z,100937.47
2022-12-03T22:16:56.636Z,100934.97
2022-12-03T22:19:26.471Z,100936.03
2022-12-03T22:21:54.283Z,100930.53
2022-12-03T22:24:23.563Z,100930.53
2022-12-03T22:26:53.417Z,100922.28
2022-12-03T22:29:21.473Z,100924.41
2022-12-03T22:31:49.469Z,100925.16
2022-12-03T22:34:17.195Z,100928.03
2022-12-03T22:36:46.285Z,100911.56
2022-12-03T22:39:14.050Z,100915.09
2022-12-03T22:41:41.897Z,100907.81
2022-12-03T22:44:09.911Z,100916.25
2022-12-03T22:46:37.919Z,100916.25
2022-12-03T22:49:07.618Z,100910.00
2022-12-03T22:51:36.048Z,100905.81
2022-12-03T22:54:05.639Z,100920.94
2022-12-03T22:56:33.484Z,100909.78
2022-12-03T22:59:01.304Z,100910.19
2022-12-03T23:01:31.924Z,100900.50
2022-12-03T23:04:00.825Z,100909.03
2022-12-03T23:06:30.509Z,100911.09
2022-12-03T23:08:59.172Z,100909.09
2022-12-03T23:11:28.666Z,100906.75
2022-12-03T23:13:57.253Z,100902.06
2022-12-03T23:16:28.850Z,100907.63
2022-12-03T23:18:59.011Z,100888.13
2022-12-03T23:21:30.932Z,100894.94
2022-12-03T23:23:59.924Z,100897.50
2022-12-03T23:26:29.857Z,100890.09
2022-12-03T23:28:57.761Z,100896.19
2022-12-03T23:31:28.437Z,100892.53
2022-12-03T23:33:57.723Z,100890.72
2022-12-03T23:36:28.724Z,100895.59
2022-12-03T23:38:56.630Z,100894.25
2022-12-03T23:41:25.434Z,100899.16
2022-12-03T23:43:55.832Z,100896.72
2022-12-03T23:46:27.139Z,100889.94
2022-12-03T23:48:55.609Z,100889.16
2022-12-03T23:51:25.514Z,100886.66
2022-12-03T23:53:55.751Z,100884.09
2022-12-03T23:56:27.249Z,100881.75
2022-12-03T23:58:57.756Z,100875.69
